Time;durP1;ratioP1;P1;durP2;ratioP2;P2;SDS_P1;SDS_P2;PMS_P1;PMS_P2;Temp;Humidity;BMP_temperature;BMP_pressure;BME280_temperature;BME280_humidity;BME280_pressure;Samples;Min_cycle;Max_cycle;Signal;HPM_P1;HPM_P2
2023/02/13 00:04:28;;;;;;;15.90;10.57;;;;;;;7.46;77.63;102663.56;10267293;29;20295;-79
2023/02/13 00:09:32;;;;;;;18.50;10.90;;;;;;;7.46;77.14;102658.22;10268683;29;20050;-79
2023/02/13 00:14:35;;;;;;;15.05;9.48;;;;;;;7.42;76.78;102647.66;10262041;29;20055;-77
2023/02/13 00:19:38;;;;;;;14.32;9.38;;;;;;;7.39;76.59;102648.63;10266670;28;20070;-78
2023/02/13 00:24:42;;;;;;;15.63;10.23;;;;;;;7.46;76.74;102654.66;10265550;29;20043;-80
2023/02/13 00:29:45;;;;;;;15.13;10.05;;;;;;;7.43;76.34;102644.06;10266829;28;20042;-78
2023/02/13 00:34:48;;;;;;;14.88;9.38;;;;;;;7.35;76.25;102654.13;10266362;28;20050;-79
2023/02/13 00:39:52;;;;;;;14.85;9.50;;;;;;;7.34;76.35;102649.69;10276488;28;20048;-80
2023/02/13 00:44:55;;;;;;;14.30;8.90;;;;;;;7.36;76.61;102645.19;10266722;29;20043;-81
2023/02/13 00:49:58;;;;;;;13.70;8.85;;;;;;;7.33;76.35;102643.47;10260050;29;20047;-80
2023/02/13 00:55:02;;;;;;;16.00;9.88;;;;;;;7.36;76.38;102643.38;10274141;28;20031;-78
2023/02/13 01:00:06;;;;;;;15.95;9.15;;;;;;;7.27;76.08;102647.22;10301059;28;20079;-79
2023/02/13 01:05:09;;;;;;;16.13;8.75;;;;;;;7.26;76.07;102652.63;10281907;28;20081;-79
2023/02/13 01:10:16;;;;;;;16.02;9.07;;;;;;;7.23;76.14;102647.38;10277169;28;20051;-78
2023/02/13 01:15:19;;;;;;;13.80;8.57;;;;;;;7.22;76.32;102641.16;10286019;29;20048;-80
2023/02/13 01:20:24;;;;;;;15.18;8.77;;;;;;;7.20;76.09;102642.13;10268036;28;20065;-81
2023/02/13 01:25:28;;;;;;;16.63;9.85;;;;;;;7.22;76.14;102640.28;10273880;28;20039;-77
2023/02/13 01:30:32;;;;;;;16.60;9.13;;;;;;;7.23;76.07;102631.31;10294469;28;20039;-79
2023/02/13 01:35:35;;;;;;;13.80;8.63;;;;;;;7.19;75.84;102633.22;10283381;28;20039;-79
2023/02/13 01:40:46;;;;;;;13.90;7.85;;;;;;;7.13;75.48;102629.84;10270842;28;20055;-78
2023/02/13 01:45:52;;;;;;;16.13;8.20;;;;;;;7.15;75.32;102628.88;10263960;29;20094;-78
2023/02/13 01:50:59;;;;;;;11.63;6.88;;;;;;;7.10;75.18;102628.13;10268740;29;20043;-79
2023/02/13 01:56:09;;;;;;;13.05;7.85;;;;;;;7.11;75.18;102637.94;10265755;28;20047;-80
2023/02/13 02:01:12;;;;;;;12.43;7.78;;;;;;;7.14;75.04;102621.78;10259248;29;20146;-80
2023/02/13 02:06:21;;;;;;;14.27;7.95;;;;;;;7.17;75.01;102611.00;10263514;28;20494;-80
2023/02/13 02:11:32;;;;;;;12.82;7.20;;;;;;;7.18;75.06;102618.09;10263481;28;20035;-79
2023/02/13 02:16:36;;;;;;;15.80;7.85;;;;;;;7.20;74.75;102613.56;10259283;29;20052;-78
2023/02/13 02:22:18;;;;;;;12.15;7.13;;;;;;;7.19;74.62;102617.19;10261503;29;20048;-79
2023/02/13 02:27:54;;;;;;;11.27;7.00;;;;;;;7.01;75.00;102610.59;10249575;29;20075;-77
2023/02/13 02:33:23;;;;;;;13.00;6.28;;;;;;;7.03;75.10;102613.25;10257526;29;20047;-79
2023/02/13 02:38:40;;;;;;;11.05;6.57;;;;;;;7.09;74.86;102615.72;10241237;29;20441;-80
2023/02/13 02:43:55;;;;;;;11.05;6.45;;;;;;;7.18;74.54;102611.88;10261179;29;20065;-81
2023/02/13 03:27:10;;;;;;;12.27;7.22;;;;;;;6.97;75.31;102568.00;10281383;29;20058;-78
2023/02/13 03:32:23;;;;;;;12.63;7.88;;;;;;;7.00;75.44;102570.56;10290056;28;20051;-79
2023/02/13 03:42:58;;;;;;;15.05;7.38;;;;;;;6.99;75.61;102577.72;10271245;29;20455;-79
2023/02/13 03:48:08;;;;;;;15.27;9.07;;;;;;;7.02;75.51;102584.75;10271281;28;20043;-79
2023/02/13 03:53:34;;;;;;;18.77;9.73;;;;;;;6.99;75.79;102583.06;10265242;29;20039;-78
2023/02/13 04:04:09;;;;;;;20.77;10.52;;;;;;;6.91;76.03;102587.78;10262901;28;20122;-80
2023/02/13 04:09:15;;;;;;;24.05;12.38;;;;;;;6.89;76.06;102588.75;10265728;28;20075;-78
2023/02/13 04:14:22;;;;;;;29.83;14.70;;;;;;;6.85;76.19;102596.78;10263130;29;20039;-79
2023/02/13 04:19:26;;;;;;;27.80;13.73;;;;;;;6.82;76.40;102601.34;10296583;28;20082;-77
2023/02/13 04:24:30;;;;;;;32.13;15.70;;;;;;;6.84;76.07;102597.72;10283559;28;20052;-78
2023/02/13 04:29:33;;;;;;;26.55;15.05;;;;;;;6.83;75.72;102601.31;10265718;29;20126;-78
2023/02/13 04:34:36;;;;;;;29.45;15.70;;;;;;;6.82;75.99;102601.34;10266474;29;20402;-79
2023/02/13 04:39:40;;;;;;;25.58;14.05;;;;;;;6.83;75.52;102598.66;10264223;29;20075;-80
2023/02/13 04:44:43;;;;;;;23.02;12.27;;;;;;;6.78;75.32;102589.91;10267090;28;20051;-79
2023/02/13 04:49:46;;;;;;;21.55;12.40;;;;;;;6.69;75.19;102587.50;10265000;29;20162;-80
2023/02/13 04:54:50;;;;;;;23.50;11.52;;;;;;;6.69;74.87;102584.84;10266869;28;20411;-80
2023/02/13 04:59:53;;;;;;;19.48;11.25;;;;;;;6.63;74.85;102580.53;10263458;29;20134;-78
2023/02/13 05:04:56;;;;;;;16.90;10.02;;;;;;;6.67;74.66;102584.00;10264946;28;20043;-80
2023/02/13 05:10:00;;;;;;;21.35;10.23;;;;;;;6.71;74.31;102577.63;10261919;29;20389;-79
2023/02/13 05:15:04;;;;;;;14.98;7.82;;;;;;;6.69;74.29;102576.84;10262554;28;20039;-79
2023/02/13 05:20:07;;;;;;;13.85;8.13;;;;;;;6.72;74.16;102582.06;10252632;29;20090;-79
2023/02/13 05:25:12;;;;;;;15.65;9.00;;;;;;;6.80;73.85;102581.81;10262768;29;20047;-79
2023/02/13 05:30:15;;;;;;;16.52;8.88;;;;;;;6.80;73.82;102589.84;10267360;28;20093;-79
2023/02/13 05:35:18;;;;;;;14.20;8.20;;;;;;;6.75;73.80;102592.66;10263795;28;20490;-79
2023/02/13 05:40:22;;;;;;;15.13;8.93;;;;;;;6.71;73.71;102585.66;10262462;28;20062;-80
2023/02/13 05:45:25;;;;;;;17.83;8.70;;;;;;;6.73;73.83;102594.50;10262892;28;20087;-79
2023/02/13 05:50:28;;;;;;;15.38;7.95;;;;;;;6.72;73.77;102599.88;10262379;28;20078;-79
2023/02/13 05:55:32;;;;;;;15.88;8.77;;;;;;;6.75;73.83;102600.69;10257848;29;20044;-79
2023/02/13 06:00:35;;;;;;;15.20;8.23;;;;;;;6.75;73.75;102608.69;10261634;28;20053;-79
2023/02/13 06:05:38;;;;;;;14.60;8.35;;;;;;;6.73;73.77;102604.31;10259995;29;20486;-79
2023/02/13 06:10:42;;;;;;;14.07;8.25;;;;;;;6.68;73.80;102603.56;10260996;28;20166;-79
2023/02/13 06:15:46;;;;;;;13.93;8.48;;;;;;;6.63;73.70;102611.72;10272276;28;20098;-79
2023/02/13 06:20:50;;;;;;;16.85;8.80;;;;;;;6.62;74.12;102616.19;10266343;29;20047;-80
2023/02/13 06:25:54;;;;;;;14.23;8.05;;;;;;;6.66;74.05;102622.31;10263091;28;20098;-79
2023/02/13 06:30:56;;;;;;;18.02;8.20;;;;;;;6.66;73.94;102630.31;10275720;28;20058;-80
2023/02/13 06:36:00;;;;;;;17.95;9.35;;;;;;;6.64;74.13;102621.50;10283336;28;20491;-80
2023/02/13 06:41:05;;;;;;;17.63;8.45;;;;;;;6.62;74.10;102624.19;10273840;28;20067;-80
2023/02/13 06:46:08;;;;;;;19.00;9.55;;;;;;;6.52;74.66;102630.72;10275735;28;20097;-80
2023/02/13 06:51:11;;;;;;;18.20;9.73;;;;;;;6.60;74.63;102631.38;10282112;28;20047;-79
2023/02/13 06:56:16;;;;;;;18.90;9.45;;;;;;;6.58;74.84;102632.34;10289503;28;20035;-80
2023/02/13 07:01:18;;;;;;;23.15;10.07;;;;;;;6.57;74.88;102635.94;10271895;29;20049;-79
2023/02/13 07:06:21;;;;;;;22.02;10.10;;;;;;;6.58;74.91;102637.66;10271993;28;20075;-79
2023/02/13 07:11:26;;;;;;;16.58;9.52;;;;;;;6.56;74.88;102629.72;10271141;29;20078;-79
2023/02/13 07:16:28;;;;;;;6.88;3.38;;;;;;;6.55;75.10;102635.09;10269805;28;20035;-79
2023/02/13 07:21:31;;;;;;;15.10;6.85;;;;;;;6.84;75.93;102642.28;10273625;28;20058;-79
2023/02/13 07:26:35;;;;;;;14.27;7.43;;;;;;;7.01;74.69;102636.44;10271777;29;20077;-80
2023/02/13 07:31:39;;;;;;;12.90;7.57;;;;;;;7.08;74.32;102643.38;10277261;28;20131;-80
2023/02/13 07:36:41;;;;;;;14.60;8.68;;;;;;;7.16;73.67;102644.03;10267492;29;20036;-79
2023/02/13 07:41:46;;;;;;;13.23;7.63;;;;;;;7.25;73.66;102649.06;10267701;28;20043;-79
2023/02/13 07:46:50;;;;;;;12.45;7.63;;;;;;;7.41;73.04;102644.13;10266841;29;20047;-79
2023/02/13 07:51:56;;;;;;;16.88;9.07;;;;;;;7.46;72.63;102644.84;10268626;29;20403;-80
2023/02/13 07:57:00;;;;;;;17.80;9.88;;;;;;;7.31;72.45;102642.66;10267881;28;20047;-80
2023/02/13 08:02:03;;;;;;;18.60;10.10;;;;;;;7.22;72.93;102648.31;10263513;29;20045;-80
2023/02/13 08:07:06;;;;;;;20.58;11.50;;;;;;;7.16;73.40;102646.69;10265068;29;20050;-78
2023/02/13 08:12:10;;;;;;;16.55;9.25;;;;;;;7.14;73.49;102653.88;10296550;29;20043;-78
2023/02/13 08:17:13;;;;;;;19.38;10.95;;;;;;;7.09;73.67;102654.94;10271582;29;20047;-77
2023/02/13 08:22:16;;;;;;;19.42;10.20;;;;;;;7.04;73.70;102655.06;10269785;29;20129;-80
2023/02/13 08:27:20;;;;;;;20.42;10.90;;;;;;;7.18;73.76;102646.63;10269254;29;20388;-79
2023/02/13 08:32:23;;;;;;;18.10;9.60;;;;;;;7.12;73.86;102645.00;10266460;28;20047;-80
2023/02/13 08:37:26;;;;;;;19.35;10.38;;;;;;;7.24;74.03;102651.78;10265168;28;20106;-80
2023/02/13 08:42:30;;;;;;;19.30;9.38;;;;;;;7.38;73.82;102646.91;10267386;29;20067;-79
2023/02/13 08:47:33;;;;;;;16.30;8.70;;;;;;;7.54;73.63;102651.72;10263857;29;20047;-80
2023/02/13 08:52:36;;;;;;;17.15;8.73;;;;;;;7.54;73.08;102649.94;10264631;28;20515;-80
2023/02/13 08:57:40;;;;;;;13.98;8.48;;;;;;;7.60;72.79;102652.44;10265032;28;20039;-80
2023/02/13 09:02:43;;;;;;;14.27;7.07;;;;;;;7.50;72.35;102656.31;10265192;28;20138;-80
2023/02/13 09:07:45;;;;;;;13.63;7.60;;;;;;;7.43;72.55;102654.75;10264526;28;20043;-80
2023/02/13 09:12:53;;;;;;;13.05;6.63;;;;;;;7.48;72.45;102655.47;10264192;29;20043;-80
2023/02/13 09:17:56;;;;;;;12.68;7.72;;;;;;;7.63;71.73;102665.69;10277964;29;20043;-80
2023/02/13 09:22:59;;;;;;;10.90;6.95;;;;;;;7.74;71.98;102668.03;10268792;28;20454;-80
2023/02/13 09:28:03;;;;;;;10.73;6.55;;;;;;;7.80;71.07;102657.13;10266578;28;20079;-80
2023/02/13 09:33:10;;;;;;;9.88;6.70;;;;;;;8.01;71.17;102651.94;10263575;29;20047;-79
2023/02/13 09:38:13;;;;;;;11.30;7.03;;;;;;;8.14;70.75;102661.31;10260378;29;20054;-80
2023/02/13 09:43:27;;;;;;;10.23;6.72;;;;;;;8.25;70.49;102660.94;10264535;28;20090;-79
2023/02/13 09:48:33;;;;;;;9.90;6.82;;;;;;;8.33;69.81;102653.50;10277635;28;20078;-80
2023/02/13 09:53:37;;;;;;;9.88;6.93;;;;;;;8.36;69.43;102658.75;10267016;29;20085;-79
2023/02/13 09:58:45;;;;;;;10.73;7.45;;;;;;;8.38;68.81;102667.63;10300021;28;20039;-78
2023/02/13 10:03:58;;;;;;;11.15;6.53;;;;;;;8.31;68.86;102674.09;10276089;28;20059;-80
2023/02/13 10:09:05;;;;;;;;;;;;;;;8.44;69.29;102670.06;10274128;28;20043;-80
2023/02/13 10:14:16;;;;;;;9.38;5.88;;;;;;;8.44;68.99;102659.34;10272451;28;20213;-80
2023/02/13 10:19:33;;;;;;;10.07;6.85;;;;;;;8.53;68.34;102655.50;10270696;28;20047;-80
2023/02/13 10:24:41;;;;;;;8.88;6.30;;;;;;;8.64;68.10;102661.38;10274096;28;20051;-80
2023/02/13 10:30:08;;;;;;;7.53;5.53;;;;;;;8.62;67.50;102657.84;10299513;28;20055;-79
2023/02/13 10:35:20;;;;;;;10.60;6.55;;;;;;;8.59;67.36;102664.19;10270924;29;20138;-80
2023/02/13 10:40:28;;;;;;;7.47;6.05;;;;;;;8.73;66.92;102666.38;10266954;29;20482;-78
2023/02/13 10:46:02;;;;;;;10.60;6.28;;;;;;;8.81;66.83;102661.59;10268556;29;20047;-79
2023/02/13 10:51:12;;;;;;;10.00;6.47;;;;;;;8.85;65.69;102662.34;10264913;28;20059;-79
2023/02/13 10:56:25;;;;;;;10.82;5.85;;;;;;;8.85;65.80;102662.34;10267691;28;20050;-80
2023/02/13 11:01:35;;;;;;;9.68;6.03;;;;;;;8.74;66.41;102653.84;10271114;29;20047;-80
2023/02/13 11:06:42;;;;;;;11.57;5.93;;;;;;;9.06;66.34;102645.44;10278706;28;20071;-80
2023/02/13 11:11:45;;;;;;;8.63;6.65;;;;;;;9.24;65.11;102651.91;10270771;28;20050;-80
2023/02/13 11:16:56;;;;;;;9.70;6.00;;;;;;;9.29;63.97;102640.97;10267269;28;20070;-80
2023/02/13 11:22:03;;;;;;;10.25;6.90;;;;;;;9.54;64.05;102645.34;10265609;29;20054;-80
2023/02/13 11:27:11;;;;;;;9.57;6.63;;;;;;;9.61;62.07;102641.50;10263358;29;20063;-80
2023/02/13 11:32:23;;;;;;;8.77;6.07;;;;;;;9.55;62.08;102633.72;10267009;28;20063;-80
2023/02/13 11:37:28;;;;;;;9.15;5.95;;;;;;;9.32;62.93;102635.50;10263053;29;20050;-80
2023/02/13 11:42:34;;;;;;;8.57;5.70;;;;;;;9.12;63.30;102632.75;10265971;28;20110;-80
2023/02/13 11:47:41;;;;;;;8.23;6.03;;;;;;;9.38;63.82;102621.84;10266726;28;20054;-80
2023/02/13 11:52:50;;;;;;;8.75;6.35;;;;;;;9.57;63.58;102615.72;10267547;29;20098;-81
2023/02/13 11:57:57;;;;;;;7.70;5.95;;;;;;;9.72;62.09;102615.94;10264777;29;20550;-79
2023/02/13 12:03:01;;;;;;;7.90;5.57;;;;;;;9.64;61.11;102623.44;10258557;29;20078;-79
2023/02/13 12:08:09;;;;;;;7.63;5.22;;;;;;;9.90;60.95;102619.72;10265358;28;20054;-79
2023/02/13 12:13:16;;;;;;;7.40;5.47;;;;;;;9.66;60.50;102607.28;10277016;28;20023;-78
2023/02/13 12:18:29;;;;;;;7.80;5.80;;;;;;;9.83;60.96;102611.94;10294009;29;20035;-78
2023/02/13 12:23:43;;;;;;;7.47;5.38;;;;;;;10.21;60.17;102598.69;10275327;28;20074;-79
2023/02/13 12:28:56;;;;;;;10.77;6.38;;;;;;;10.78;59.65;102584.41;10265376;28;20055;-78
2023/02/13 12:34:33;;;;;;;7.05;5.63;;;;;;;10.77;57.98;102584.47;10246292;29;20047;-80
2023/02/13 12:39:41;;;;;;;10.68;6.40;;;;;;;10.34;58.61;102578.41;10262379;29;20133;-78
2023/02/13 12:45:02;;;;;;;10.60;6.32;;;;;;;10.16;59.80;102575.59;10275561;29;20043;-77
2023/02/13 12:50:29;;;;;;;10.63;7.00;;;;;;;10.19;59.72;102571.91;10270377;29;20051;-80
2023/02/13 12:55:46;;;;;;;9.73;6.07;;;;;;;10.95;58.32;102555.84;10274879;29;20082;-80
2023/02/13 13:00:59;;;;;;;8.38;5.20;;;;;;;11.92;55.59;102549.19;10274607;23;20075;-77
2023/02/13 13:06:18;;;;;;;8.43;5.60;;;;;;;14.29;49.67;102529.25;10219578;29;20510;-76
2023/02/13 13:11:46;;;;;;;7.05;5.22;;;;;;;14.65;47.37;102517.09;10222204;29;20090;-78
2023/02/13 13:16:58;;;;;;;7.18;4.70;;;;;;;13.81;49.14;102520.50;10213941;29;20081;-78
2023/02/13 13:22:07;;;;;;;7.18;4.95;;;;;;;15.30;46.22;102515.53;10237737;29;20047;-78
2023/02/13 13:27:19;;;;;;;5.90;4.80;;;;;;;15.74;44.44;102517.06;10218343;29;20055;-77
2023/02/13 13:32:22;;;;;;;6.57;4.83;;;;;;;15.90;44.35;102513.16;10200147;29;20044;-79
2023/02/13 13:37:33;;;;;;;5.97;4.80;;;;;;;15.81;43.59;102505.69;10233136;29;20462;-79
2023/02/13 13:42:42;;;;;;;6.63;5.95;;;;;;;15.35;44.86;102508.00;10222896;28;20078;-77
2023/02/13 13:48:00;;;;;;;6.78;4.55;;;;;;;15.28;44.77;102507.53;10208295;29;20063;-77
2023/02/13 13:53:11;;;;;;;5.60;4.60;;;;;;;14.78;46.02;102509.91;10209774;29;20047;-78
2023/02/13 13:58:22;;;;;;;5.20;4.10;;;;;;;14.54;46.08;102516.91;10220438;29;20056;-77
2023/02/13 14:03:37;;;;;;;6.80;4.32;;;;;;;14.42;46.75;102504.16;10215206;29;20128;-78
2023/02/13 14:09:22;;;;;;;7.43;4.68;;;;;;;13.86;47.06;102496.78;10222606;29;20036;-77
2023/02/13 14:14:54;;;;;;;8.73;5.03;;;;;;;13.61;48.00;102488.47;10235645;29;20044;-77
2023/02/13 14:19:57;;;;;;;5.70;3.85;;;;;;;13.63;48.11;102489.22;10216842;29;20078;-78
2023/02/13 14:25:02;;;;;;;9.50;5.88;;;;;;;13.76;47.88;102481.25;10218304;29;20475;-78
2023/02/13 14:30:26;;;;;;;6.30;4.93;;;;;;;14.03;47.37;102487.63;10217847;29;20052;-77
2023/02/13 14:35:32;;;;;;;5.65;4.43;;;;;;;13.82;47.73;102481.75;10221030;29;20095;-78
2023/02/13 14:40:53;;;;;;;5.05;4.50;;;;;;;13.72;48.15;102477.88;10266729;29;20039;-78
2023/02/13 14:46:03;;;;;;;5.65;4.53;;;;;;;13.63;47.70;102476.59;10269413;29;20058;-80
2023/02/13 14:51:14;;;;;;;5.07;4.50;;;;;;;13.38;48.29;102474.50;10262891;28;20565;-78
2023/02/13 14:56:21;;;;;;;7.75;4.93;;;;;;;13.58;48.82;102477.84;10231997;28;20403;-78
2023/02/13 15:01:30;;;;;;;7.78;4.82;;;;;;;13.08;49.10;102465.50;10240388;28;20110;-77
2023/02/13 15:06:38;;;;;;;6.65;5.28;;;;;;;12.91;50.31;102467.34;10235905;29;20066;-79
2023/02/13 15:11:43;;;;;;;4.65;4.18;;;;;;;12.98;50.11;102467.88;10227142;28;20055;-78
2023/02/13 15:16:51;;;;;;;7.20;5.15;;;;;;;13.08;49.66;102460.97;10242618;28;20075;-77
2023/02/13 15:21:57;;;;;;;5.70;5.10;;;;;;;12.66;50.26;102458.94;10209986;29;20071;-77
2023/02/13 15:27:03;;;;;;;5.13;4.53;;;;;;;12.55;51.04;102454.16;10245756;29;20070;-77
2023/02/13 15:32:19;;;;;;;7.60;5.72;;;;;;;12.62;50.87;102447.47;10253107;28;20047;-77
2023/02/13 15:37:24;;;;;;;7.65;5.68;;;;;;;12.50;51.04;102446.31;10178578;29;20563;-77
2023/02/13 15:42:27;;;;;;;7.22;5.40;;;;;;;12.07;52.09;102453.22;10207387;29;20393;-77
2023/02/13 15:47:33;;;;;;;6.45;5.53;;;;;;;11.70;52.98;102450.66;10231025;29;20039;-78
2023/02/13 15:52:38;;;;;;;6.15;5.05;;;;;;;11.17;54.44;102448.09;10237350;29;20481;-79
2023/02/13 15:57:41;;;;;;;7.15;5.35;;;;;;;10.66;56.25;102445.19;10240918;28;20047;-78
2023/02/13 16:02:47;;;;;;;6.47;5.38;;;;;;;10.28;57.30;102436.28;10247270;28;20094;-78
2023/02/13 16:07:51;;;;;;;7.50;6.38;;;;;;;9.88;58.55;102439.03;10244443;29;20054;-78
2023/02/13 16:12:57;;;;;;;9.85;6.20;;;;;;;9.41;60.08;102447.34;10249261;28;20154;-78
2023/02/13 16:18:05;;;;;;;8.10;6.22;;;;;;;9.00;61.11;102441.06;10232158;29;20105;-77
2023/02/13 16:23:16;;;;;;;9.30;7.13;;;;;;;8.67;62.72;102441.53;10245434;29;20114;-77
2023/02/13 16:28:21;;;;;;;18.48;12.32;;;;;;;8.47;63.27;102436.94;10230894;29;20051;-77
2023/02/13 16:33:28;;;;;;;9.60;7.43;;;;;;;8.24;64.12;102445.84;10235909;28;20079;-77
2023/02/13 16:38:35;;;;;;;10.95;7.03;;;;;;;8.10;64.64;102438.34;10229873;29;20521;-78
2023/02/13 16:43:41;;;;;;;9.05;6.97;;;;;;;7.95;65.67;102445.16;10234616;29;20130;-77
2023/02/13 16:48:48;;;;;;;12.02;7.47;;;;;;;7.78;65.90;102449.38;10228757;29;20099;-77
2023/02/13 16:53:56;;;;;;;11.48;9.15;;;;;;;7.61;66.61;102455.34;10223064;29;20055;-77
2023/02/13 16:59:20;;;;;;;10.93;8.35;;;;;;;7.57;66.78;102456.38;10211510;29;20051;-78
2023/02/13 17:04:25;;;;;;;11.27;7.35;;;;;;;7.46;66.95;102454.06;10233705;28;20051;-77
2023/02/13 17:09:28;;;;;;;10.77;7.25;;;;;;;7.39;67.06;102455.22;10233181;29;20086;-77
2023/02/13 17:14:31;;;;;;;11.98;8.10;;;;;;;7.28;67.43;102468.97;10236121;28;20529;-77
2023/02/13 17:19:35;;;;;;;16.08;9.20;;;;;;;7.20;67.80;102468.34;10219922;29;20467;-78
2023/02/13 17:24:38;;;;;;;13.40;9.32;;;;;;;7.18;68.01;102475.53;10239392;28;20051;-78
2023/02/13 17:29:41;;;;;;;13.13;9.38;;;;;;;7.15;68.10;102473.84;10241448;28;20062;-78
2023/02/13 17:34:46;;;;;;;12.95;9.13;;;;;;;7.06;68.27;102471.47;10231151;28;20145;-78
2023/02/13 17:39:49;;;;;;;11.60;9.20;;;;;;;7.01;68.42;102478.78;10247052;28;20443;-77
2023/02/13 17:44:53;;;;;;;13.90;9.43;;;;;;;6.95;68.74;102468.28;10233243;28;20422;-78
2023/02/13 17:49:57;;;;;;;13.50;10.43;;;;;;;6.90;68.82;102470.25;10235896;28;20070;-78
2023/02/13 17:55:17;;;;;;;16.25;11.82;;;;;;;6.80;69.21;102461.59;10237545;29;20055;-78
2023/02/13 18:00:21;;;;;;;15.50;11.25;;;;;;;6.75;69.39;102459.09;10236730;29;20040;-78
2023/02/13 18:05:26;;;;;;;14.80;10.85;;;;;;;6.67;69.24;102453.13;10228645;29;20043;-78
2023/02/13 18:10:31;;;;;;;11.95;8.63;;;;;;;6.51;69.65;102460.72;10239139;29;20090;-78
2023/02/13 18:15:38;;;;;;;13.68;9.55;;;;;;;6.50;70.04;102464.34;10229202;29;20118;-77
2023/02/13 18:20:43;;;;;;;18.15;12.70;;;;;;;6.48;69.93;102457.28;10236960;29;20039;-78
2023/02/13 18:25:45;;;;;;;18.33;11.20;;;;;;;6.36;69.86;102462.09;10255750;28;20473;-78
2023/02/13 18:30:48;;;;;;;19.20;12.82;;;;;;;6.32;70.01;102460.41;10256916;29;20081;-78
2023/02/13 18:35:58;;;;;;;21.15;13.18;;;;;;;6.23;70.30;102458.03;10254316;28;20079;-77
2023/02/13 18:41:02;;;;;;;26.70;12.77;;;;;;;6.23;70.61;102451.84;10239623;28;20039;-78
2023/02/13 18:46:05;;;;;;;17.23;10.93;;;;;;;6.24;70.86;102451.78;10240217;29;20044;-78
2023/02/13 18:51:09;;;;;;;20.77;11.73;;;;;;;6.15;71.11;102460.06;10246372;28;20043;-78
2023/02/13 18:56:13;;;;;;;17.73;10.77;;;;;;;6.10;71.04;102460.19;10248640;28;20043;-78
2023/02/13 19:01:18;;;;;;;17.77;12.30;;;;;;;5.95;71.11;102452.63;10237897;28;20474;-78
2023/02/13 19:06:23;;;;;;;18.80;12.13;;;;;;;5.86;72.24;102456.44;10256032;29;20087;-79
2023/02/13 19:11:27;;;;;;;14.10;10.18;;;;;;;5.80;72.08;102456.59;10255701;29;20067;-79
2023/02/13 19:16:31;;;;;;;16.80;10.60;;;;;;;5.80;71.95;102459.28;10248091;29;20059;-80
2023/02/13 19:21:37;;;;;;;17.45;11.70;;;;;;;5.78;71.99;102458.44;10246361;29;20158;-79
2023/02/13 19:26:40;;;;;;;17.30;12.25;;;;;;;5.77;72.44;102458.50;10253545;28;20553;-79
2023/02/13 19:31:44;;;;;;;16.35;11.45;;;;;;;5.66;72.29;102456.13;10243071;28;20051;-79
2023/02/13 19:36:48;;;;;;;19.30;12.45;;;;;;;5.48;72.23;102452.16;10254773;29;20047;-79
2023/02/13 19:41:51;;;;;;;15.95;11.02;;;;;;;5.40;72.53;102457.72;10242935;28;20056;-78
2023/02/13 19:46:53;;;;;;;17.20;11.80;;;;;;;5.43;72.53;102459.38;10243432;28;20091;-77
2023/02/13 19:51:57;;;;;;;20.02;12.85;;;;;;;5.34;72.75;102456.97;10242628;28;20565;-78
2023/02/13 19:57:04;;;;;;;19.83;12.80;;;;;;;5.31;72.98;102449.06;10244594;29;20048;-78
2023/02/13 20:02:13;;;;;;;19.65;12.32;;;;;;;5.25;72.80;102455.44;10232615;29;20062;-78
2023/02/13 20:07:17;;;;;;;19.38;12.80;;;;;;;5.29;73.07;102451.75;10239153;28;20099;-79
2023/02/13 20:12:20;;;;;;;20.90;13.52;;;;;;;5.27;73.17;102440.28;10244849;28;20070;-78
2023/02/13 20:17:22;;;;;;;18.95;13.13;;;;;;;5.19;72.91;102442.28;10245034;29;20048;-77
2023/02/13 20:22:27;;;;;;;20.50;13.52;;;;;;;5.02;72.79;102451.56;10231248;29;20410;-78
2023/02/13 20:27:30;;;;;;;19.73;12.68;;;;;;;4.98;73.03;102433.88;10228880;29;20036;-78
2023/02/13 20:32:32;;;;;;;24.92;13.15;;;;;;;5.01;73.24;102448.94;10253321;29;20102;-78
2023/02/13 20:37:37;;;;;;;21.83;14.43;;;;;;;5.01;73.28;102451.59;10248914;29;20070;-78
2023/02/13 20:42:39;;;;;;;20.15;13.38;;;;;;;4.94;73.21;102447.31;10244284;28;20510;-79
2023/02/13 20:47:42;;;;;;;20.23;13.85;;;;;;;4.84;73.07;102447.53;10247640;29;20047;-78
2023/02/13 20:52:46;;;;;;;19.80;12.93;;;;;;;4.78;73.28;102437.03;10240653;28;20043;-77
2023/02/13 20:57:49;;;;;;;19.83;13.15;;;;;;;4.68;73.20;102431.94;10233008;28;20040;-78
2023/02/13 21:02:52;;;;;;;21.42;13.60;;;;;;;4.64;73.48;102430.28;10235578;29;20104;-78
2023/02/13 21:07:56;;;;;;;20.40;13.23;;;;;;;4.65;73.51;102430.25;10244349;29;20042;-78
2023/02/13 21:12:59;;;;;;;22.83;14.27;;;;;;;4.60;73.67;102427.66;10242599;28;20050;-78
2023/02/13 21:18:02;;;;;;;25.08;15.88;;;;;;;4.60;73.83;102429.47;10239984;28;20063;-78
2023/02/13 21:23:06;;;;;;;21.92;13.93;;;;;;;4.55;73.89;102434.91;10237312;28;20058;-79
2023/02/13 21:28:09;;;;;;;23.77;14.93;;;;;;;4.49;74.08;102431.50;10239728;29;20040;-79
2023/02/13 21:33:12;;;;;;;23.40;14.65;;;;;;;4.45;74.12;102433.38;10240964;29;20083;-79
2023/02/13 21:38:17;;;;;;;22.15;14.60;;;;;;;4.49;74.16;102432.38;10250343;29;20422;-79
2023/02/13 21:43:22;;;;;;;23.00;15.63;;;;;;;4.38;74.02;102440.59;10242724;29;20048;-79
2023/02/13 21:48:24;;;;;;;22.55;14.65;;;;;;;4.34;74.27;102432.75;10244522;29;20074;-79
2023/02/13 21:53:30;;;;;;;21.15;14.00;;;;;;;4.35;74.61;102431.81;10244032;28;20039;-78
2023/02/13 21:58:33;;;;;;;25.55;15.25;;;;;;;4.32;74.83;102442.53;10252374;28;20051;-79
2023/02/13 22:03:36;;;;;;;21.30;13.90;;;;;;;4.29;74.57;102446.13;10199637;28;1068474;-78
2023/02/13 22:08:40;;;;;;;25.02;14.65;;;;;;;4.23;74.72;102440.97;10239076;29;20047;-78
2023/02/13 22:13:43;;;;;;;26.17;16.02;;;;;;;4.28;74.98;102433.75;10230976;29;20058;-78
2023/02/13 22:18:47;;;;;;;24.70;15.50;;;;;;;4.32;75.11;102446.06;10243765;28;20099;-78
2023/02/13 22:23:51;;;;;;;24.92;15.85;;;;;;;4.21;74.74;102442.78;10233884;29;20058;-78
2023/02/13 22:28:58;;;;;;;25.65;15.20;;;;;;;4.13;74.31;102447.38;10232513;28;20124;-78
2023/02/13 22:34:01;;;;;;;28.55;15.00;;;;;;;4.05;74.05;102438.69;10246868;29;20040;-78
2023/02/13 22:39:09;;;;;;;21.33;14.38;;;;;;;3.94;73.65;102438.91;10224498;29;20066;-78
2023/02/13 22:44:12;;;;;;;22.48;14.48;;;;;;;3.82;73.69;102437.38;10245997;28;20484;-78
2023/02/13 22:49:15;;;;;;;22.65;14.70;;;;;;;3.77;74.26;102433.94;10240351;29;20058;-78
2023/02/13 22:54:19;;;;;;;27.85;16.35;;;;;;;3.76;73.99;102432.19;10237606;29;20401;-78
2023/02/13 22:59:21;;;;;;;27.58;16.73;;;;;;;3.71;74.18;102437.59;10243321;29;20087;-78
2023/02/13 23:04:24;;;;;;;26.88;15.88;;;;;;;3.72;74.53;102433.16;10245354;29;20043;-79
2023/02/13 23:09:28;;;;;;;24.08;15.23;;;;;;;3.56;74.22;102429.03;10238432;28;20070;-78
2023/02/13 23:14:31;;;;;;;21.98;13.95;;;;;;;3.48;74.60;102438.03;10249525;29;20054;-78
2023/02/13 23:19:34;;;;;;;24.92;15.00;;;;;;;3.54;74.94;102437.06;10233847;29;20043;-78
2023/02/13 23:24:39;;;;;;;24.67;14.93;;;;;;;3.55;74.78;102427.28;10239113;29;20559;-77
2023/02/13 23:29:41;;;;;;;21.95;15.20;;;;;;;3.48;73.89;102429.16;10226932;29;20051;-77
2023/02/13 23:34:44;;;;;;;26.73;15.35;;;;;;;3.32;73.42;102425.94;10247584;29;20127;-78
2023/02/13 23:39:48;;;;;;;26.58;15.05;;;;;;;3.21;73.41;102427.88;10234496;29;20070;-76
2023/02/13 23:44:51;;;;;;;23.88;14.18;;;;;;;3.12;73.27;102425.41;10237206;29;20396;-78
2023/02/13 23:49:54;;;;;;;21.88;14.75;;;;;;;3.10;73.21;102427.19;10237088;29;20429;-78
2023/02/13 23:54:58;;;;;;;20.75;12.85;;;;;;;3.00;72.64;102434.47;10237542;29;20109;-78
